Time;durP1;ratioP1;P1;durP2;ratioP2;P2;SDS_P1;SDS_P2;PMS_P1;PMS_P2;Temp;Humidity;BMP_temperature;BMP_pressure;BME280_temperature;BME280_humidity;BME280_pressure;Samples;Min_cycle;Max_cycle;Signal;HPM_P1;HPM_P2
2024/02/19 00:02:25;;;;;;;4.15;2.58;;;;;;;8.52;100.00;101485.06;6325162;28;20425;-79
2024/02/19 00:05:26;;;;;;;4.30;2.75;;;;;;;8.52;100.00;101487.69;6324940;28;20059;-79
2024/02/19 00:08:28;;;;;;;9.57;3.13;;;;;;;8.51;100.00;101490.38;6324574;28;20052;-80
2024/02/19 00:11:29;;;;;;;4.78;2.85;;;;;;;8.51;100.00;101493.00;6324906;28;20040;-79
2024/02/19 00:14:32;;;;;;;5.10;2.92;;;;;;;8.58;100.00;101499.72;6324625;28;20129;-79
2024/02/19 00:17:33;;;;;;;6.75;2.88;;;;;;;8.51;100.00;101503.47;6324281;28;20360;-79
2024/02/19 00:20:35;;;;;;;5.95;2.88;;;;;;;8.50;100.00;101513.09;6324855;28;20051;-79
2024/02/19 00:23:36;;;;;;;5.00;2.85;;;;;;;8.51;100.00;101522.66;6324302;28;20048;-80
2024/02/19 00:26:37;;;;;;;4.65;2.55;;;;;;;8.45;100.00;101517.63;6326297;28;20052;-80
2024/02/19 00:29:40;;;;;;;3.88;2.03;;;;;;;8.47;100.00;101528.03;6328922;28;20056;-80
2024/02/19 00:32:41;;;;;;;3.90;2.75;;;;;;;8.45;100.00;101541.19;6329545;28;20116;-79
2024/02/19 00:35:42;;;;;;;3.35;2.03;;;;;;;8.43;100.00;101537.75;6328168;28;20051;-80
2024/02/19 00:38:44;;;;;;;2.83;1.75;;;;;;;8.43;100.00;101545.63;6328685;28;20052;-79
2024/02/19 00:41:45;;;;;;;2.92;1.55;;;;;;;8.31;100.00;101551.19;6328944;28;20044;-79
2024/02/19 00:44:48;;;;;;;1.92;0.98;;;;;;;8.24;100.00;101562.78;6328976;28;20044;-80
2024/02/19 00:47:50;;;;;;;1.50;0.77;;;;;;;7.93;100.00;101578.53;6328644;28;20159;-79
2024/02/19 00:50:51;;;;;;;1.13;0.57;;;;;;;7.83;100.00;101570.94;6328794;28;20051;-78
2024/02/19 00:53:52;;;;;;;0.55;0.55;;;;;;;7.84;100.00;101587.50;6328729;28;20431;-80
2024/02/19 00:56:54;;;;;;;0.88;0.45;;;;;;;7.79;100.00;101584.16;6328701;28;20048;-79
2024/02/19 00:59:56;;;;;;;0.55;0.52;;;;;;;7.82;100.00;101605.03;6328308;28;20055;-80
2024/02/19 01:02:58;;;;;;;0.63;0.17;;;;;;;7.76;100.00;101597.31;6328372;28;20044;-79
2024/02/19 01:05:59;;;;;;;0.40;0.22;;;;;;;7.70;100.00;101608.81;6328143;28;20344;-79
2024/02/19 01:09:01;;;;;;;2.35;0.40;;;;;;;7.61;100.00;101619.53;6327819;28;20059;-76
2024/02/19 01:12:03;;;;;;;0.22;0.20;;;;;;;7.55;100.00;101635.41;6328607;28;20134;-79
2024/02/19 01:15:07;;;;;;;1.02;0.40;;;;;;;7.48;100.00;101616.38;6328011;28;20055;-78
2024/02/19 01:18:09;;;;;;;0.30;0.30;;;;;;;7.47;100.00;101632.13;6327976;28;20052;-78
2024/02/19 01:21:10;;;;;;;2.83;0.22;;;;;;;7.41;100.00;101646.22;6328063;28;20051;-77
2024/02/19 01:24:12;;;;;;;0.30;0.20;;;;;;;7.37;100.00;101636.75;6327808;28;20393;-79
2024/02/19 01:27:13;;;;;;;0.20;0.20;;;;;;;7.34;100.00;101650.75;6328280;28;20048;-78
2024/02/19 01:30:16;;;;;;;0.25;0.25;;;;;;;7.37;100.00;101655.91;6327248;28;20134;-78
2024/02/19 01:33:19;;;;;;;0.40;0.40;;;;;;;7.38;100.00;101652.38;6327900;28;20131;-79
2024/02/19 01:36:21;;;;;;;0.65;0.40;;;;;;;7.37;100.00;101660.28;6327298;28;20447;-79
2024/02/19 01:39:22;;;;;;;0.22;0.22;;;;;;;7.30;100.00;101656.94;6327290;28;20180;-83
2024/02/19 01:42:24;;;;;;;0.55;0.30;;;;;;;7.37;100.00;101663.75;6327816;28;20048;-82
2024/02/19 01:45:26;;;;;;;0.32;0.32;;;;;;;7.40;100.00;101664.56;6327686;28;20044;-83
2024/02/19 01:48:28;;;;;;;0.90;0.35;;;;;;;7.45;100.00;101679.25;6327094;28;20052;-83
2024/02/19 01:51:30;;;;;;;0.47;0.30;;;;;;;7.37;100.00;101686.44;6327787;28;20051;-83
2024/02/19 01:54:31;;;;;;;0.30;0.30;;;;;;;7.42;100.00;101695.00;6327103;28;20138;-83
2024/02/19 01:57:33;;;;;;;0.17;0.13;;;;;;;7.46;100.00;101701.88;6326780;28;20048;-83
2024/02/19 02:00:36;;;;;;;0.30;0.30;;;;;;;7.44;100.00;101705.41;6327349;28;20059;-80
2024/02/19 02:03:38;;;;;;;1.08;0.40;;;;;;;7.45;100.00;101709.75;6327179;28;20060;-83
2024/02/19 02:06:40;;;;;;;1.55;0.22;;;;;;;7.50;100.00;101708.75;6327719;28;20052;-83
2024/02/19 02:09:42;;;;;;;1.08;0.30;;;;;;;7.38;100.00;101714.28;6326604;28;20048;-81
2024/02/19 02:12:44;;;;;;;3.83;0.20;;;;;;;7.52;100.00;101713.94;6327434;28;20448;-84
2024/02/19 02:15:46;;;;;;;0.10;0.10;;;;;;;7.49;100.00;101727.09;6326601;28;20043;-84
2024/02/19 02:18:47;;;;;;;0.60;0.25;;;;;;;7.44;100.00;101735.03;6326506;28;20052;-81
2024/02/19 02:21:49;;;;;;;1.38;0.63;;;;;;;7.55;100.00;101737.41;6326731;28;20051;-83
2024/02/19 02:24:50;;;;;;;0.75;0.30;;;;;;;7.47;100.00;101749.81;6326539;28;20059;-83
2024/02/19 02:27:53;;;;;;;3.17;0.45;;;;;;;7.38;100.00;101748.28;6326329;28;20055;-82
2024/02/19 02:30:54;;;;;;;1.10;0.20;;;;;;;7.45;100.00;101747.25;6326463;28;20451;-84
2024/02/19 02:33:55;;;;;;;0.38;0.30;;;;;;;7.42;100.00;101760.38;6324005;28;20051;-79
2024/02/19 02:36:57;;;;;;;0.20;0.20;;;;;;;7.33;100.00;101771.06;6320944;28;20356;-82
2024/02/19 02:39:58;;;;;;;8.65;2.45;;;;;;;7.33;100.00;101769.31;6325825;28;20052;-80
2024/02/19 02:43:01;;;;;;;24.23;7.28;;;;;;;7.29;100.00;101780.72;6325965;28;20047;-84
2024/02/19 02:46:03;;;;;;;0.85;0.43;;;;;;;7.22;100.00;101787.00;6326126;28;20178;-83
2024/02/19 02:49:05;;;;;;;2.20;0.32;;;;;;;7.22;100.00;101784.41;6324578;28;20059;-83
2024/02/19 02:52:06;;;;;;;1.92;0.38;;;;;;;7.07;100.00;101779.50;6326118;28;20051;-83
2024/02/19 02:55:08;;;;;;;0.10;0.10;;;;;;;7.08;100.00;101786.44;6325833;28;20436;-82
2024/02/19 02:58:11;;;;;;;0.55;0.10;;;;;;;7.08;100.00;101783.81;6325651;28;20050;-78
2024/02/19 03:01:14;;;;;;;0.10;0.10;;;;;;;7.00;100.00;101804.91;6325705;28;20087;-76
2024/02/19 03:04:16;;;;;;;0.95;0.10;;;;;;;7.22;100.00;101793.97;6325700;28;20055;-78
2024/02/19 03:07:17;;;;;;;0.22;0.20;;;;;;;7.08;100.00;101799.50;6322400;28;20048;-79
2024/02/19 03:10:18;;;;;;;3.13;0.20;;;;;;;7.21;100.00;101806.19;6324862;28;20048;-78
2024/02/19 03:13:21;;;;;;;1.75;0.20;;;;;;;7.22;100.00;101809.66;6325860;28;20051;-78
2024/02/19 03:16:23;;;;;;;0.80;0.25;;;;;;;7.19;100.00;101818.44;6325314;28;20082;-78
2024/02/19 03:19:24;;;;;;;0.90;0.22;;;;;;;7.10;100.00;101821.25;6325159;28;20051;-79
2024/02/19 03:22:26;;;;;;;0.52;0.20;;;;;;;7.07;100.00;101822.16;6325269;28;20352;-78
2024/02/19 03:25:27;;;;;;;0.00;0.00;;;;;;;7.01;100.00;101822.31;6325416;28;20048;-78
2024/02/19 03:28:30;;;;;;;1.17;0.25;;;;;;;7.14;100.00;101833.38;6324941;28;20052;-78
2024/02/19 03:31:31;;;;;;;3.00;0.30;;;;;;;7.16;100.00;101841.16;6325487;28;20714;-78
2024/02/19 03:34:32;;;;;;;3.70;0.20;;;;;;;7.09;100.00;101851.75;6324340;28;20048;-78
2024/02/19 03:37:33;;;;;;;0.10;0.10;;;;;;;7.10;100.00;101850.00;6324759;28;20052;-79
2024/02/19 03:40:35;;;;;;;4.10;0.20;;;;;;;7.07;100.00;101861.38;6313825;28;20067;-79
2024/02/19 03:43:37;;;;;;;2.90;0.22;;;;;;;7.04;100.00;101861.47;6299957;28;20063;-78
2024/02/19 03:46:39;;;;;;;2.40;0.38;;;;;;;7.00;100.00;101862.41;6325144;28;20352;-78
2024/02/19 03:49:40;;;;;;;0.20;0.17;;;;;;;7.00;100.00;101867.63;6324662;28;20087;-79
2024/02/19 03:52:42;;;;;;;1.98;0.43;;;;;;;6.89;100.00;101871.34;6324634;28;20416;-78
2024/02/19 03:55:43;;;;;;;0.20;0.20;;;;;;;7.06;100.00;101871.88;6324654;28;20055;-79
2024/02/19 03:58:45;;;;;;;1.38;0.25;;;;;;;7.00;100.00;101867.63;6323617;28;20044;-78
2024/02/19 04:01:47;;;;;;;1.90;0.20;;;;;;;7.00;100.00;101874.63;6326565;28;20044;-79
2024/02/19 04:04:48;;;;;;;5.53;0.28;;;;;;;6.93;100.00;101873.88;6329510;28;20048;-79
2024/02/19 04:07:49;;;;;;;0.22;0.10;;;;;;;7.00;100.00;101878.09;6329437;28;20053;-79
2024/02/19 04:10:51;;;;;;;0.13;0.13;;;;;;;7.10;100.00;101886.59;6329704;28;20047;-79
2024/02/19 04:13:53;;;;;;;2.38;0.30;;;;;;;7.06;100.00;101880.56;6329506;28;20036;-78
2024/02/19 04:16:55;;;;;;;1.52;0.25;;;;;;;7.12;100.00;101888.28;6329613;28;20047;-79
2024/02/19 04:19:57;;;;;;;3.72;0.50;;;;;;;7.05;100.00;101894.53;6329158;28;20047;-79
2024/02/19 04:22:58;;;;;;;1.00;0.20;;;;;;;7.03;100.00;101895.44;6329317;28;20123;-78
2024/02/19 04:25:59;;;;;;;0.25;0.25;;;;;;;7.05;100.00;101899.75;6329357;28;20044;-79
2024/02/19 04:29:02;;;;;;;0.22;0.10;;;;;;;7.07;100.00;101902.34;6328881;28;20478;-79
2024/02/19 04:32:04;;;;;;;0.20;0.20;;;;;;;7.06;100.00;101911.06;6329281;28;20053;-78
2024/02/19 04:35:06;;;;;;;0.55;0.15;;;;;;;7.09;100.00;101911.03;6310850;28;20055;-76
2024/02/19 04:38:08;;;;;;;1.05;0.17;;;;;;;7.07;100.00;101913.66;6307591;28;20048;-76
2024/02/19 04:41:09;;;;;;;2.47;0.52;;;;;;;7.08;100.00;101906.66;6316546;28;20048;-79
2024/02/19 04:44:12;;;;;;;1.15;0.60;;;;;;;7.10;100.00;101916.22;6316196;28;20071;-79
2024/02/19 04:47:14;;;;;;;2.30;0.90;;;;;;;7.15;100.00;101913.50;6316554;28;20353;-79
2024/02/19 04:50:15;;;;;;;4.10;1.17;;;;;;;7.14;100.00;101914.41;6316850;28;21504;-79
2024/02/19 04:53:18;;;;;;;2.20;1.13;;;;;;;7.09;100.00;101918.88;6317485;28;20040;-79
2024/02/19 04:56:19;;;;;;;4.32;1.17;;;;;;;7.18;100.00;101917.81;6326120;28;20123;-79
2024/02/19 04:59:22;;;;;;;5.57;1.50;;;;;;;7.17;100.00;101923.91;6328252;28;20040;-79
2024/02/19 05:02:23;;;;;;;1.83;1.27;;;;;;;7.24;100.00;101917.69;6328363;28;20048;-79
2024/02/19 05:05:25;;;;;;;4.93;1.63;;;;;;;7.24;100.00;101912.47;6327952;28;20428;-79
2024/02/19 05:08:26;;;;;;;5.40;1.50;;;;;;;7.23;100.00;101919.44;6327893;28;20127;-79
2024/02/19 05:11:28;;;;;;;2.80;1.55;;;;;;;7.18;100.00;101915.22;6327924;28;20379;-79
2024/02/19 05:14:30;;;;;;;2.40;1.23;;;;;;;7.26;100.00;101921.97;6327613;28;20044;-79
2024/02/19 05:17:32;;;;;;;4.72;1.50;;;;;;;7.27;100.00;101920.25;6327522;28;20420;-80
2024/02/19 05:20:35;;;;;;;1.20;0.93;;;;;;;7.25;100.00;101928.09;6328077;28;20047;-80
2024/02/19 05:23:36;;;;;;;1.55;1.00;;;;;;;7.26;100.00;101929.81;6326571;28;20037;-79
2024/02/19 05:26:40;;;;;;;2.85;1.30;;;;;;;7.27;100.00;101925.47;6311506;28;20041;-80
2024/02/19 05:29:43;;;;;;;1.75;0.80;;;;;;;7.25;100.00;101935.94;6302111;28;20048;-78
2024/02/19 05:32:44;;;;;;;2.05;1.65;;;;;;;7.20;100.00;101931.72;6326017;28;20067;-80
2024/02/19 05:35:46;;;;;;;2.13;1.00;;;;;;;7.27;100.00;101939.41;6327579;28;20040;-80
2024/02/19 05:38:47;;;;;;;2.78;1.33;;;;;;;7.30;100.00;101934.09;6327035;28;20044;-80
2024/02/19 05:41:48;;;;;;;2.95;1.63;;;;;;;7.31;100.00;101930.59;6327684;28;20470;-80
2024/02/19 05:44:51;;;;;;;4.75;1.42;;;;;;;7.42;100.00;101937.38;6327027;28;20044;-80
2024/02/19 05:47:52;;;;;;;3.05;1.80;;;;;;;7.40;100.00;101934.75;6327145;28;20051;-80
2024/02/19 05:50:53;;;;;;;3.50;1.38;;;;;;;7.39;100.00;101938.28;6327356;28;20048;-80
2024/02/19 05:53:55;;;;;;;3.42;1.40;;;;;;;7.45;100.00;101937.28;6327273;28;20048;-80
2024/02/19 05:56:56;;;;;;;1.83;1.13;;;;;;;7.49;100.00;101950.25;6327391;28;20055;-80
2024/02/19 05:59:59;;;;;;;2.72;1.02;;;;;;;7.49;100.00;101945.03;6318332;28;20044;-80
2024/02/19 06:03:04;;;;;;;4.95;1.58;;;;;;;7.45;100.00;101950.34;6326922;28;20036;-80
2024/02/19 06:06:05;;;;;;;3.38;1.60;;;;;;;7.45;100.00;101945.13;6326897;28;20048;-79
2024/02/19 06:09:07;;;;;;;4.53;1.75;;;;;;;7.44;100.00;101953.88;6328027;28;20048;-79
2024/02/19 06:12:09;;;;;;;3.20;1.45;;;;;;;7.49;100.00;101952.88;6326945;28;20047;-80
2024/02/19 06:15:12;;;;;;;6.07;1.40;;;;;;;7.50;100.00;101954.63;6326517;28;20127;-79
2024/02/19 06:18:13;;;;;;;5.32;2.00;;;;;;;7.54;100.00;101958.00;6326113;28;20052;-80
2024/02/19 06:21:14;;;;;;;3.00;1.50;;;;;;;7.61;100.00;101955.22;6326779;28;20479;-79
2024/02/19 06:24:16;;;;;;;2.67;1.25;;;;;;;7.57;100.00;101965.78;6325328;28;20044;-80
2024/02/19 06:27:19;;;;;;;2.42;1.25;;;;;;;7.57;100.00;101973.66;6326697;28;20047;-80
2024/02/19 06:30:22;;;;;;;4.32;1.70;;;;;;;7.62;100.00;101983.09;6325672;28;20076;-80
2024/02/19 06:33:23;;;;;;;2.95;1.92;;;;;;;7.61;100.00;101989.25;6318890;28;20043;-80
2024/02/19 06:36:25;;;;;;;2.42;1.30;;;;;;;7.64;100.00;101993.56;6309230;28;20063;-79
2024/02/19 06:39:26;;;;;;;2.40;1.45;;;;;;;7.69;100.00;101993.47;6300430;28;20044;-80
2024/02/19 06:42:27;;;;;;;2.65;1.55;;;;;;;7.66;100.00;101990.91;6305000;28;20432;-79
2024/02/19 06:45:30;;;;;;;2.83;1.63;;;;;;;7.69;100.00;101991.72;6311820;28;20044;-79
2024/02/19 06:48:31;;;;;;;3.28;1.67;;;;;;;7.71;100.00;102003.00;6325412;28;20044;-80
2024/02/19 06:51:32;;;;;;;3.47;1.70;;;;;;;7.69;100.00;102004.78;6317427;28;20048;-80
2024/02/19 06:54:34;;;;;;;8.65;1.63;;;;;;;7.71;100.00;102005.59;6316750;28;20040;-79
2024/02/19 06:57:35;;;;;;;2.90;2.05;;;;;;;7.74;100.00;102017.78;6325294;28;20447;-79
2024/02/19 07:00:38;;;;;;;3.08;1.70;;;;;;;7.70;100.00;102016.13;6319992;28;20048;-79
2024/02/19 07:03:39;;;;;;;3.97;2.13;;;;;;;7.73;100.00;102011.69;6308703;28;20621;-80
2024/02/19 07:06:40;;;;;;;3.47;1.85;;;;;;;7.78;100.00;102020.28;6315530;28;20055;-80
2024/02/19 07:09:42;;;;;;;3.42;1.83;;;;;;;7.79;100.00;102016.78;6317923;28;20044;-79
2024/02/19 07:12:43;;;;;;;4.88;2.00;;;;;;;7.68;100.00;102025.75;6325587;28;20556;-79
2024/02/19 07:15:46;;;;;;;7.35;2.08;;;;;;;7.76;100.00;102032.53;6325109;28;20051;-79
2024/02/19 07:18:47;;;;;;;2.15;1.48;;;;;;;7.77;100.00;102033.41;6324931;28;20047;-80
2024/02/19 07:21:49;;;;;;;2.67;1.85;;;;;;;7.75;100.00;102032.56;6325304;28;20086;-80
2024/02/19 07:24:51;;;;;;;3.72;2.03;;;;;;;7.82;100.00;102034.19;6324626;28;20432;-79
2024/02/19 07:27:52;;;;;;;3.60;2.13;;;;;;;7.83;100.00;102042.00;6324886;28;20066;-80
2024/02/19 07:30:55;;;;;;;3.35;2.38;;;;;;;7.80;100.00;102038.56;6325031;28;20051;-79
2024/02/19 07:33:56;;;;;;;6.05;2.58;;;;;;;7.75;100.00;102054.38;6324968;28;20040;-79
2024/02/19 07:36:57;;;;;;;3.83;2.50;;;;;;;7.79;100.00;102053.41;6324802;28;20435;-80
2024/02/19 07:39:59;;;;;;;8.73;2.53;;;;;;;7.89;100.00;102060.16;6325916;22;20041;-73
2024/02/19 07:43:00;;;;;;;6.93;2.20;;;;;;;7.87;100.00;102059.34;6235798;28;20046;-73
2024/02/19 07:46:03;;;;;;;2.35;1.55;;;;;;;7.87;100.00;102059.34;6218405;28;20050;-74
2024/02/19 07:49:04;;;;;;;5.63;1.80;;;;;;;7.92;100.00;102058.41;6219140;28;20046;-76
2024/02/19 07:52:06;;;;;;;2.17;1.63;;;;;;;7.95;100.00;102055.69;6219050;28;20061;-76
2024/02/19 07:55:07;;;;;;;2.70;1.52;;;;;;;7.94;100.00;102049.59;6228037;28;20046;-74
2024/02/19 07:58:09;;;;;;;4.32;1.58;;;;;;;7.97;100.00;102062.63;6226040;28;20050;-74
2024/02/19 08:01:12;;;;;;;5.45;1.60;;;;;;;7.95;100.00;102071.41;6225118;28;20378;-74
2024/02/19 08:04:13;;;;;;;6.50;2.55;;;;;;;7.96;100.00;102068.78;6205320;28;20042;-74
2024/02/19 08:07:14;;;;;;;2.38;1.42;;;;;;;8.05;100.00;102065.09;6212898;28;20134;-76
2024/02/19 08:10:16;;;;;;;8.57;1.80;;;;;;;8.05;100.00;102075.56;6203279;28;20050;-74
2024/02/19 08:13:17;;;;;;;2.78;1.60;;;;;;;8.05;100.00;102072.94;6203258;28;20046;-76
2024/02/19 08:16:20;;;;;;;2.58;1.52;;;;;;;8.06;100.00;102075.53;6203150;28;20054;-74
2024/02/19 08:19:21;;;;;;;2.38;1.40;;;;;;;8.10;100.00;102082.44;6197399;28;20432;-76
2024/02/19 08:22:23;;;;;;;4.63;1.52;;;;;;;8.11;100.00;102085.91;6197423;28;20486;-77
2024/02/19 08:25:24;;;;;;;4.90;2.10;;;;;;;8.04;100.00;102085.19;6200746;28;20058;-76
2024/02/19 08:28:25;;;;;;;4.45;2.55;;;;;;;8.12;100.00;102085.84;6212074;28;20070;-75
2024/02/19 08:31:28;;;;;;;6.13;1.95;;;;;;;8.19;100.00;102093.59;6218135;28;20061;-75
2024/02/19 08:34:30;;;;;;;8.10;2.05;;;;;;;8.16;100.00;102081.41;6225521;28;20049;-77
2024/02/19 08:37:31;;;;;;;9.23;2.00;;;;;;;8.12;100.00;102083.25;6207063;28;20042;-75
2024/02/19 08:40:32;;;;;;;6.93;2.42;;;;;;;8.16;100.00;102070.09;6221165;28;20061;-76
2024/02/19 08:43:34;;;;;;;5.80;1.92;;;;;;;8.14;100.00;102080.59;6208676;28;20042;-76
2024/02/19 08:46:36;;;;;;;11.27;1.75;;;;;;;8.19;100.00;102077.88;6206070;28;20057;-75
2024/02/19 08:49:38;;;;;;;8.98;2.92;;;;;;;8.24;100.00;102078.66;6209523;28;20064;-76
2024/02/19 08:52:39;;;;;;;3.10;2.15;;;;;;;8.31;100.00;102067.13;6207687;28;20046;-77
2024/02/19 08:55:40;;;;;;;9.25;2.30;;;;;;;8.32;100.00;102077.56;6207927;28;20053;-77
2024/02/19 08:58:42;;;;;;;6.85;2.30;;;;;;;8.38;100.00;102074.00;6213219;28;20046;-76
2024/02/19 09:01:44;;;;;;;6.35;1.58;;;;;;;8.33;100.00;102078.44;6205272;28;20042;-75
2024/02/19 09:04:47;;;;;;;2.25;1.65;;;;;;;8.42;100.00;102070.41;6210122;28;20049;-76
2024/02/19 09:07:48;;;;;;;15.45;1.60;;;;;;;8.44;100.00;102078.22;6204760;28;20355;-75
2024/02/19 09:10:49;;;;;;;6.45;1.90;;;;;;;8.51;100.00;102087.66;6207644;28;20061;-77
2024/02/19 09:13:51;;;;;;;12.52;1.90;;;;;;;8.58;100.00;102081.38;6205285;28;20053;-75
2024/02/19 09:16:55;;;;;;;9.57;1.63;;;;;;;8.61;100.00;102076.94;6206767;28;20053;-76
2024/02/19 09:19:57;;;;;;;9.50;2.63;;;;;;;8.67;100.00;102078.53;6204111;28;20406;-74
2024/02/19 09:22:58;;;;;;;15.65;4.28;;;;;;;8.72;100.00;102060.97;6205046;28;20046;-77
2024/02/19 09:25:59;;;;;;;13.85;1.80;;;;;;;8.80;100.00;102072.09;6205009;28;20046;-76
2024/02/19 09:29:01;;;;;;;9.00;2.13;;;;;;;8.83;100.00;102066.78;6215785;28;20042;-77
2024/02/19 09:32:04;;;;;;;6.22;1.92;;;;;;;8.89;100.00;102065.75;6230215;28;20061;-76
2024/02/19 09:35:06;;;;;;;12.32;2.53;;;;;;;8.84;100.00;102063.25;6228550;28;20061;-76
2024/02/19 09:38:09;;;;;;;5.63;2.78;;;;;;;8.86;100.00;102065.88;6228193;28;20112;-76
2024/02/19 09:41:10;;;;;;;9.35;2.17;;;;;;;9.00;100.00;102063.75;6228840;28;20568;-76
2024/02/19 09:44:12;;;;;;;8.23;2.60;;;;;;;9.19;100.00;102060.66;6212845;28;20050;-75
2024/02/19 09:47:19;;;;;;;10.95;3.20;;;;;;;9.17;100.00;102068.53;6218430;28;20349;-77
2024/02/19 09:50:21;;;;;;;5.50;2.40;;;;;;;9.30;100.00;102076.94;6222464;28;20077;-73
2024/02/19 09:53:29;;;;;;;5.00;2.45;;;;;;;9.36;100.00;102067.16;6228749;28;20041;-74
2024/02/19 09:56:31;;;;;;;6.97;2.20;;;;;;;9.31;100.00;102076.94;6228954;28;20046;-75
2024/02/19 09:59:32;;;;;;;11.27;2.67;;;;;;;9.42;100.00;102073.16;6227667;28;20054;-75
2024/02/19 10:02:35;;;;;;;8.77;2.22;;;;;;;9.41;100.00;102067.03;6228721;28;20053;-76
2024/02/19 10:05:36;;;;;;;9.45;2.20;;;;;;;9.48;100.00;102076.44;6228044;28;20049;-75
2024/02/19 10:08:37;;;;;;;10.73;2.45;;;;;;;9.50;100.00;102066.78;6227679;28;20041;-75
2024/02/19 10:11:39;;;;;;;8.63;2.45;;;;;;;9.55;100.00;102069.28;6228145;28;20046;-77
2024/02/19 10:14:41;;;;;;;12.15;3.13;;;;;;;9.65;100.00;102068.97;6215938;28;20439;-73
2024/02/19 10:17:44;;;;;;;10.75;2.63;;;;;;;9.74;100.00;102067.84;6203161;28;20056;-75
2024/02/19 10:20:46;;;;;;;19.60;3.45;;;;;;;9.73;100.00;102066.13;6202265;28;20068;-74
2024/02/19 10:23:48;;;;;;;7.53;2.40;;;;;;;9.70;100.00;102062.72;6202384;28;20046;-75
2024/02/19 10:26:49;;;;;;;11.07;2.53;;;;;;;9.83;100.00;102056.22;6202394;28;20042;-74
2024/02/19 10:29:50;;;;;;;10.45;2.90;;;;;;;9.70;100.00;102060.97;6224265;28;20046;-73
2024/02/19 10:32:53;;;;;;;12.07;2.80;;;;;;;9.72;100.00;102061.81;6227365;28;20042;-74
2024/02/19 10:35:54;;;;;;;5.10;2.40;;;;;;;9.69;100.00;102063.66;6212216;28;20049;-74
2024/02/19 10:38:56;;;;;;;9.10;2.10;;;;;;;9.69;100.00;102056.63;6218179;28;20050;-75
2024/02/19 10:41:57;;;;;;;10.15;2.53;;;;;;;9.62;100.00;102062.94;6226891;28;20049;-73
2024/02/19 10:44:59;;;;;;;13.48;2.53;;;;;;;9.63;100.00;102059.44;6226481;28;20042;-74
2024/02/19 10:48:03;;;;;;;7.70;2.38;;;;;;;9.65;100.00;102061.09;6222174;28;20056;-72
2024/02/19 10:51:04;;;;;;;8.90;2.33;;;;;;;9.76;100.00;102058.16;6203448;28;20041;-73
2024/02/19 10:54:06;;;;;;;10.65;2.45;;;;;;;9.78;100.00;102058.13;6226614;28;20068;-75
2024/02/19 10:57:08;;;;;;;11.93;2.05;;;;;;;9.85;100.00;102052.63;6203599;28;20126;-73
2024/02/19 11:00:11;;;;;;;10.55;1.90;;;;;;;9.95;100.00;102063.75;6211827;28;20494;-75
2024/02/19 11:03:14;;;;;;;17.35;2.42;;;;;;;9.88;100.00;102068.31;6202081;28;20104;-74
2024/02/19 11:06:15;;;;;;;5.10;2.33;;;;;;;9.92;100.00;102066.47;6212858;28;20053;-74
2024/02/19 11:09:17;;;;;;;9.48;1.88;;;;;;;9.95;100.00;102060.25;6214451;28;20434;-76
2024/02/19 11:12:21;;;;;;;5.78;1.92;;;;;;;10.05;100.00;102054.69;6209430;28;20046;-75
2024/02/19 11:15:22;;;;;;;10.15;1.90;;;;;;;9.95;100.00;102060.25;6214955;28;20048;-74
2024/02/19 11:18:25;;;;;;;6.13;2.13;;;;;;;9.91;100.00;102067.38;6211822;28;20054;-76
2024/02/19 11:21:26;;;;;;;4.35;1.65;;;;;;;9.95;100.00;102061.13;6209883;28;20046;-76
2024/02/19 11:24:29;;;;;;;5.85;1.83;;;;;;;9.94;100.00;102055.91;6220734;28;20049;-75
2024/02/19 11:27:32;;;;;;;10.23;2.13;;;;;;;9.97;100.00;102045.31;6221068;28;20050;-73
2024/02/19 11:30:33;;;;;;;6.63;2.20;;;;;;;10.00;100.00;102048.72;6221710;28;20046;-76
2024/02/19 11:33:36;;;;;;;4.63;2.63;;;;;;;10.12;100.00;102050.09;6225460;28;20050;-75
2024/02/19 11:36:37;;;;;;;7.07;3.38;;;;;;;10.18;100.00;102047.31;6225834;28;20045;-73
2024/02/19 11:39:39;;;;;;;9.27;2.72;;;;;;;10.17;100.00;102040.31;6224994;28;20054;-75
2024/02/19 11:42:41;;;;;;;6.15;2.58;;;;;;;10.18;100.00;102047.31;6225935;28;20046;-73
2024/02/19 11:45:43;;;;;;;13.40;3.08;;;;;;;10.04;100.00;102036.34;6225126;28;20038;-74
2024/02/19 11:48:45;;;;;;;14.63;4.20;;;;;;;9.95;100.00;102029.63;6201055;28;20045;-73
2024/02/19 11:51:47;;;;;;;10.82;3.47;;;;;;;9.93;100.00;102039.28;6201069;28;20137;-72
2024/02/19 11:54:53;;;;;;;8.95;3.88;;;;;;;9.98;100.00;102032.13;6207277;28;20042;-73
2024/02/19 11:57:56;;;;;;;15.18;3.17;;;;;;;10.09;100.00;102026.56;6225114;28;20053;-73
2024/02/19 12:00:58;;;;;;;12.73;3.42;;;;;;;10.18;100.00;102028.91;6210247;28;20053;-74
2024/02/19 12:04:03;;;;;;;14.07;3.72;;;;;;;10.19;100.00;102020.13;6218147;28;20050;-73
2024/02/19 12:07:05;;;;;;;15.18;3.42;;;;;;;10.26;100.00;102020.81;6206835;28;20050;-74
2024/02/19 12:10:09;;;;;;;8.55;3.50;;;;;;;10.31;100.00;102021.50;6211888;28;20052;-72
2024/02/19 12:13:11;;;;;;;14.93;3.35;;;;;;;10.33;100.00;102009.19;6225373;28;20459;-74
2024/02/19 12:16:12;;;;;;;12.48;3.33;;;;;;;10.35;100.00;102013.47;6201192;28;20054;-73
2024/02/19 12:19:15;;;;;;;11.18;3.00;;;;;;;10.32;100.00;102010.97;6201563;28;20449;-73
2024/02/19 12:22:16;;;;;;;16.60;5.30;;;;;;;10.33;100.00;102009.19;6226143;28;20058;-73
2024/02/19 12:25:17;;;;;;;9.98;3.30;;;;;;;10.23;100.00;102003.34;6221223;28;20053;-74
2024/02/19 12:28:19;;;;;;;15.43;4.05;;;;;;;10.33;100.00;101999.56;6207028;28;20053;-72
2024/02/19 12:31:20;;;;;;;14.65;3.65;;;;;;;10.29;100.00;101997.06;6229783;28;20203;-75
2024/02/19 12:34:23;;;;;;;15.25;3.92;;;;;;;10.27;100.00;101991.88;6229693;28;20462;-73
2024/02/19 12:37:24;;;;;;;14.48;4.18;;;;;;;10.39;100.00;101994.09;6229567;28;20057;-73
2024/02/19 12:40:26;;;;;;;16.98;4.80;;;;;;;10.50;100.00;101996.38;6212002;28;20050;-71
2024/02/19 12:43:27;;;;;;;14.55;4.05;;;;;;;10.51;100.00;101982.31;6216300;28;20046;-74
2024/02/19 12:46:29;;;;;;;13.15;3.90;;;;;;;10.50;100.00;101985.88;6229549;28;20038;-74
2024/02/19 12:49:33;;;;;;;10.30;4.00;;;;;;;10.56;100.00;101983.03;6229080;28;20052;-75
2024/02/19 12:52:34;;;;;;;19.05;4.03;;;;;;;10.52;100.00;101978.78;6217712;28;20046;-74
2024/02/19 12:55:36;;;;;;;11.57;3.80;;;;;;;10.47;100.00;101975.44;6205521;28;20053;-74
2024/02/19 12:58:37;;;;;;;8.88;3.38;;;;;;;10.38;100.00;101966.09;6203649;28;20058;-73
2024/02/19 13:01:39;;;;;;;10.40;3.45;;;;;;;10.51;100.00;101965.69;6206434;28;20046;-75
2024/02/19 13:04:42;;;;;;;9.52;2.83;;;;;;;10.39;100.00;101964.31;6212657;28;20049;-73
2024/02/19 13:07:47;;;;;;;9.68;3.30;;;;;;;10.15;100.00;101969.44;6204378;28;20137;-74
2024/02/19 13:10:49;;;;;;;14.10;3.55;;;;;;;10.12;100.00;101958.16;6224029;28;20498;-73
2024/02/19 13:13:52;;;;;;;10.50;3.65;;;;;;;10.15;100.00;101951.06;6214583;28;20046;-74
2024/02/19 13:16:54;;;;;;;10.70;3.83;;;;;;;10.20;100.00;101953.53;6206152;28;20174;-74
2024/02/19 13:19:56;;;;;;;15.55;3.67;;;;;;;10.29;100.00;101958.50;6222413;28;20137;-73
2024/02/19 13:22:58;;;;;;;19.50;4.57;;;;;;;10.43;100.00;101944.91;6216199;28;20043;-75
2024/02/19 13:26:02;;;;;;;16.40;4.50;;;;;;;10.45;100.00;101945.75;6202601;28;20050;-73
2024/02/19 13:29:04;;;;;;;11.98;4.50;;;;;;;10.49;100.00;101942.09;6202655;28;20046;-72
2024/02/19 13:32:06;;;;;;;16.38;3.80;;;;;;;10.44;100.00;101937.88;6200233;28;20058;-73
2024/02/19 13:35:11;;;;;;;13.18;4.00;;;;;;;10.47;100.00;101946.53;6194081;28;20184;-74
2024/02/19 13:38:13;;;;;;;15.45;4.07;;;;;;;10.43;100.00;101937.03;6203486;28;20054;-73
2024/02/19 13:41:15;;;;;;;18.67;3.13;;;;;;;10.49;100.00;101944.72;6238077;22;20371;-78
2024/02/19 13:44:16;;;;;;;13.52;3.53;;;;;;;10.43;100.00;101938.81;6242611;28;20045;-78
2024/02/19 13:47:18;;;;;;;11.02;3.83;;;;;;;10.40;100.00;101939.75;6242403;28;20045;-78
2024/02/19 13:50:20;;;;;;;8.32;3.47;;;;;;;10.33;100.00;101933.84;6243346;28;20590;-78
2024/02/19 13:53:22;;;;;;;13.60;3.10;;;;;;;10.43;100.00;101923.91;6237778;28;20054;-78
2024/02/19 13:56:25;;;;;;;12.50;3.47;;;;;;;10.44;100.00;101936.13;6246386;28;20176;-78
2024/02/19 13:59:27;;;;;;;7.97;3.15;;;;;;;10.54;100.00;101929.66;6247042;28;20054;-77
2024/02/19 14:02:28;;;;;;;12.25;3.08;;;;;;;10.63;100.00;101929.34;6243187;28;20124;-75